createdAt,value
2019-05-28T00:00:01.595Z,18.74
2019-05-28T00:02:25.953Z,18.35
2019-05-28T00:04:59.684Z,18.05
2019-05-28T00:07:31.806Z,17.89
2019-05-28T00:10:04.340Z,17.61
2019-05-28T00:12:38.704Z,17.45
2019-05-28T00:15:11.699Z,17.30
2019-05-28T00:17:43.904Z,17.22
2019-05-28T00:20:18.051Z,17.16
2019-05-28T00:22:52.720Z,17.11
2019-05-28T00:25:29.167Z,17.05
2019-05-28T00:27:58.886Z,17.03
2019-05-28T00:30:31.145Z,17.07
2019-05-28T00:33:05.811Z,17.10
2019-05-28T00:35:37.961Z,17.16
2019-05-28T00:38:10.071Z,17.17
2019-05-28T00:40:43.736Z,17.19
2019-05-28T00:43:15.924Z,17.23
2019-05-28T00:45:48.142Z,17.25
2019-05-28T00:48:21.938Z,17.21
2019-05-28T00:50:54.116Z,17.11
2019-05-28T00:53:26.581Z,17.03
2019-05-28T00:55:59.167Z,16.92
2019-05-28T00:58:32.669Z,16.66
2019-05-28T01:01:06.479Z,16.46
2019-05-28T01:03:38.597Z,16.33
2019-05-28T01:06:10.756Z,16.16
2019-05-28T01:08:43.005Z,15.94
2019-05-28T01:11:15.232Z,15.84
2019-05-28T01:13:47.414Z,15.83
2019-05-28T01:16:19.722Z,15.76
2019-05-28T01:18:51.799Z,15.77
2019-05-28T01:21:23.990Z,15.81
2019-05-28T01:23:56.200Z,15.88
2019-05-28T01:26:28.416Z,15.87
2019-05-28T01:29:00.901Z,15.81
2019-05-28T01:31:33.647Z,15.57
2019-05-28T01:34:05.924Z,15.50
2019-05-28T01:36:38.076Z,15.55
2019-05-28T01:39:10.259Z,15.47
2019-05-28T01:41:42.419Z,15.40
2019-05-28T01:44:15.031Z,15.31
2019-05-28T01:46:47.274Z,15.29
2019-05-28T01:49:21.164Z,15.25
2019-05-28T01:51:53.378Z,15.22
2019-05-28T01:54:25.630Z,15.18
2019-05-28T01:56:57.746Z,15.17
2019-05-28T01:59:29.950Z,15.06
2019-05-28T02:02:02.961Z,15.01
2019-05-28T02:04:36.393Z,15.04
2019-05-28T02:07:08.481Z,15.02
2019-05-28T02:09:40.781Z,14.83
2019-05-28T02:12:13.230Z,14.64
2019-05-28T02:14:48.820Z,14.56
2019-05-28T02:17:21.071Z,14.38
2019-05-28T02:19:54.423Z,14.33
2019-05-28T02:22:26.559Z,14.32
2019-05-28T02:24:58.686Z,14.18
2019-05-28T02:27:30.785Z,13.96
2019-05-28T02:30:03.359Z,13.89
2019-05-28T02:32:36.849Z,13.85
2019-05-28T02:35:09.642Z,13.87
2019-05-28T02:37:41.858Z,13.95
2019-05-28T02:40:14.659Z,13.98
2019-05-28T02:42:46.819Z,14.01
2019-05-28T02:45:19.350Z,14.01
2019-05-28T02:47:51.573Z,14.02
2019-05-28T02:50:53.062Z,13.90
2019-05-28T02:53:25.465Z,13.82
2019-05-28T02:55:58.995Z,13.55
2019-05-28T02:58:35.168Z,13.54
2019-05-28T03:01:09.499Z,13.53
2019-05-28T03:03:44.187Z,13.47
2019-05-28T03:06:17.064Z,13.35
2019-05-28T03:08:51.118Z,13.34
2019-05-28T03:11:23.416Z,13.32
2019-05-28T03:13:57.094Z,13.31
2019-05-28T03:16:33.778Z,13.26
2019-05-28T03:19:06.684Z,13.23
2019-05-28T03:21:40.229Z,13.21
2019-05-28T03:24:15.287Z,13.21
2019-05-28T03:26:47.619Z,12.99
2019-05-28T03:29:19.918Z,13.08
2019-05-28T03:32:07.065Z,13.07
2019-05-28T03:34:27.914Z,13.05
2019-05-28T03:37:02.265Z,13.01
2019-05-28T03:39:35.882Z,13.13
2019-05-28T03:42:08.028Z,13.20
2019-05-28T03:44:40.201Z,13.18
2019-05-28T03:47:12.277Z,13.09
2019-05-28T03:49:44.494Z,12.96
2019-05-28T03:52:17.679Z,12.70
2019-05-28T03:54:49.887Z,12.61
2019-05-28T03:57:21.969Z,12.55
2019-05-28T03:59:57.696Z,12.37
2019-05-28T04:02:28.003Z,12.38
2019-05-28T04:05:00.075Z,12.41
2019-05-28T04:07:34.119Z,12.37
2019-05-28T04:10:06.846Z,12.37
2019-05-28T04:12:38.925Z,12.28
2019-05-28T04:15:11.338Z,12.26
2019-05-28T04:17:43.616Z,12.33
2019-05-28T04:20:18.969Z,12.31
2019-05-28T04:22:51.036Z,12.27
2019-05-28T04:25:24.636Z,12.20
2019-05-28T04:27:57.141Z,12.13
2019-05-28T04:30:29.211Z,12.09
2019-05-28T04:33:02.178Z,12.13
2019-05-28T04:35:34.566Z,12.12
2019-05-28T04:38:06.763Z,12.14
2019-05-28T04:40:38.899Z,12.17
2019-05-28T04:43:11.098Z,12.22
2019-05-28T04:45:43.235Z,12.25
2019-05-28T04:48:15.739Z,12.20
2019-05-28T04:50:48.430Z,12.16
2019-05-28T04:53:20.538Z,12.18
2019-05-28T04:55:53.084Z,12.03
2019-05-28T04:58:25.203Z,11.98
2019-05-28T05:00:57.385Z,11.90
2019-05-28T05:03:29.470Z,11.53
2019-05-28T05:06:01.618Z,11.82
2019-05-28T05:08:33.677Z,11.85
2019-05-28T05:11:07.527Z,11.89
2019-05-28T05:13:40.571Z,11.82
2019-05-28T05:16:12.706Z,11.90
2019-05-28T05:18:46.580Z,12.00
2019-05-28T05:21:18.623Z,12.04
2019-05-28T05:23:50.788Z,12.17
2019-05-28T05:26:22.942Z,12.26
2019-05-28T05:28:55.143Z,12.36
2019-05-28T05:31:27.805Z,12.39
2019-05-28T05:34:00.189Z,12.35
2019-05-28T05:36:34.352Z,12.34
2019-05-28T05:39:11.525Z,12.39
2019-05-28T05:41:43.850Z,12.47
2019-05-28T05:44:16.034Z,12.55
2019-05-28T05:46:48.388Z,12.48
2019-05-28T05:49:21.930Z,12.65
2019-05-28T05:51:54.173Z,13.65
2019-05-28T05:54:26.230Z,15.33
2019-05-28T05:57:00.150Z,17.21
2019-05-28T05:59:32.988Z,18.72
2019-05-28T06:02:08.016Z,20.60
2019-05-28T06:04:47.467Z,21.41
2019-05-28T06:07:16.044Z,22.05
2019-05-28T06:09:48.331Z,23.15
2019-05-28T06:12:20.446Z,22.79
2019-05-28T06:14:52.795Z,23.45
2019-05-28T06:17:25.149Z,24.51
2019-05-28T06:19:57.514Z,24.77
2019-05-28T06:22:29.712Z,24.14
2019-05-28T06:25:07.032Z,23.49
2019-05-28T06:27:39.285Z,24.11
2019-05-28T06:30:11.821Z,25.55
2019-05-28T06:32:44.286Z,26.39
2019-05-28T06:35:16.804Z,25.33
2019-05-28T06:37:50.882Z,26.30
2019-05-28T06:40:26.215Z,26.16
2019-05-28T06:42:59.623Z,26.77
2019-05-28T06:45:33.471Z,27.95
2019-05-28T06:48:05.842Z,29.90
2019-05-28T06:50:37.898Z,31.01
2019-05-28T06:53:19.356Z,32.64
2019-05-28T06:55:53.759Z,32.64
2019-05-28T06:58:38.897Z,32.63
2019-05-28T07:01:00.677Z,33.55
2019-05-28T07:03:34.342Z,34.06
2019-05-28T07:06:09.692Z,32.90
2019-05-28T07:08:41.934Z,32.60
2019-05-28T07:11:19.671Z,33.44
2019-05-28T07:13:56.182Z,34.56
2019-05-28T07:16:30.189Z,32.79
2019-05-28T07:19:02.315Z,32.53
2019-05-28T07:21:36.363Z,32.49
2019-05-28T07:24:08.698Z,33.51
2019-05-28T07:26:40.859Z,32.28
2019-05-28T07:29:14.457Z,33.14
2019-05-28T07:31:46.638Z,32.79
2019-05-28T07:34:30.733Z,33.67
2019-05-28T07:36:55.628Z,33.75
2019-05-28T07:39:28.967Z,34.59
2019-05-28T07:42:02.667Z,33.46
2019-05-28T07:44:34.903Z,32.64
2019-05-28T07:47:11.222Z,33.23
2019-05-28T07:49:43.325Z,32.30
2019-05-28T07:52:15.350Z,30.95
2019-05-28T07:54:47.475Z,31.58
2019-05-28T07:57:19.679Z,32.76
2019-05-28T07:59:51.848Z,31.93
2019-05-28T08:02:24.140Z,32.89
2019-05-28T08:04:56.505Z,33.19
2019-05-28T08:07:30.954Z,34.24
2019-05-28T08:10:04.844Z,34.90
2019-05-28T08:12:47.864Z,34.74
2019-05-28T08:15:28.412Z,34.39
2019-05-28T08:18:12.467Z,32.57
2019-05-28T08:20:53.195Z,32.92
2019-05-28T08:23:25.288Z,31.39
2019-05-28T08:26:21.791Z,30.36
2019-05-28T08:28:59.721Z,30.33
2019-05-28T08:31:35.283Z,30.33
2019-05-28T08:34:07.294Z,30.43
2019-05-28T08:36:41.107Z,30.77
2019-05-28T08:39:13.316Z,30.19
2019-05-28T08:41:45.391Z,31.89
2019-05-28T08:44:17.448Z,30.93
2019-05-28T08:46:49.757Z,32.36
2019-05-28T08:49:24.181Z,32.15
2019-05-28T08:51:56.449Z,31.38
2019-05-28T08:54:30.739Z,31.38
2019-05-28T08:57:02.808Z,30.26
2019-05-28T08:59:34.776Z,32.10
2019-05-28T09:02:23.939Z,32.53
2019-05-28T09:04:40.771Z,32.52
2019-05-28T09:07:13.313Z,34.33
2019-05-28T09:09:47.079Z,35.93
2019-05-28T09:12:20.414Z,37.57
2019-05-28T09:14:56.145Z,36.58
2019-05-28T09:17:26.229Z,37.18
2019-05-28T09:19:58.246Z,37.29
2019-05-28T09:22:32.162Z,36.82
2019-05-28T09:25:04.414Z,35.72
2019-05-28T09:27:38.734Z,37.57
2019-05-28T09:30:11.251Z,37.87
2019-05-28T09:32:43.295Z,35.90
2019-05-28T09:35:17.670Z,36.70
2019-05-28T09:37:49.835Z,38.00
2019-05-28T09:40:22.553Z,36.12
2019-05-28T09:42:54.623Z,36.52
2019-05-28T09:45:26.750Z,36.14
2019-05-28T09:47:58.927Z,36.10
2019-05-28T09:50:31.444Z,36.26
2019-05-28T09:53:04.708Z,35.73
2019-05-28T09:55:38.534Z,35.10
2019-05-28T09:58:11.053Z,34.33
2019-05-28T10:00:57.488Z,35.12
2019-05-28T10:03:17.349Z,37.00
2019-05-28T10:06:02.046Z,35.80
2019-05-28T10:08:23.457Z,38.35
2019-05-28T10:10:55.535Z,37.42
2019-05-28T10:13:38.001Z,38.13
2019-05-28T10:16:01.500Z,36.63
2019-05-28T10:18:33.699Z,37.50
2019-05-28T10:21:17.959Z,38.17
2019-05-28T10:23:39.726Z,37.67
2019-05-28T10:26:11.921Z,36.14
2019-05-28T10:28:44.069Z,37.64
2019-05-28T10:31:16.270Z,39.12
2019-05-28T10:33:48.438Z,40.56
2019-05-28T10:36:35.283Z,39.53
2019-05-28T10:38:55.826Z,37.49
2019-05-28T10:41:29.645Z,36.45
2019-05-28T10:44:01.750Z,35.22
2019-05-28T10:46:34.055Z,35.39
2019-05-28T10:49:06.432Z,36.06
2019-05-28T10:51:38.590Z,36.38
2019-05-28T10:54:10.661Z,37.32
2019-05-28T10:56:42.702Z,36.80
2019-05-28T10:59:16.790Z,36.78
2019-05-28T11:01:49.020Z,36.88
2019-05-28T11:04:21.315Z,36.25
2019-05-28T11:06:53.500Z,35.49
2019-05-28T11:09:25.547Z,36.90
2019-05-28T11:11:57.622Z,36.50
2019-05-28T11:14:29.848Z,36.71
2019-05-28T11:17:02.128Z,37.74
2019-05-28T11:19:34.234Z,37.05
2019-05-28T11:22:06.664Z,36.08
2019-05-28T11:24:42.714Z,35.56
2019-05-28T11:27:14.856Z,34.19
2019-05-28T11:29:46.968Z,33.35
2019-05-28T11:32:19.077Z,32.58
2019-05-28T11:34:51.314Z,32.90
2019-05-28T11:37:23.479Z,32.85
2019-05-28T11:39:55.648Z,31.70
2019-05-28T11:42:29.356Z,30.18
2019-05-28T11:45:01.573Z,29.11
2019-05-28T11:47:35.091Z,28.92
2019-05-28T11:50:08.006Z,28.65
2019-05-28T11:52:40.171Z,28.73
2019-05-28T11:55:14.349Z,28.99
2019-05-28T11:57:49.059Z,28.71
2019-05-28T12:00:24.660Z,28.76
2019-05-28T12:02:57.016Z,28.69
2019-05-28T12:05:29.520Z,28.79
2019-05-28T12:08:07.790Z,28.89
2019-05-28T12:10:40.479Z,29.20
2019-05-28T12:13:12.881Z,28.96
2019-05-28T12:15:46.647Z,28.59
2019-05-28T12:18:22.096Z,28.79
2019-05-28T12:20:54.553Z,28.71
2019-05-28T12:23:26.809Z,29.02
2019-05-28T12:25:59.147Z,29.03
2019-05-28T12:28:38.025Z,28.82
2019-05-28T12:31:09.653Z,29.03
2019-05-28T12:33:41.879Z,28.83
2019-05-28T12:36:15.916Z,28.79
2019-05-28T12:38:48.159Z,28.93
2019-05-28T12:41:20.532Z,28.68
2019-05-28T12:43:52.951Z,28.89
2019-05-28T12:46:25.397Z,29.14
2019-05-28T12:49:01.111Z,29.27
2019-05-28T12:51:33.320Z,29.28
2019-05-28T12:54:05.917Z,29.30
2019-05-28T12:56:38.519Z,29.30
2019-05-28T12:59:11.401Z,29.24
2019-05-28T13:01:43.877Z,29.14
2019-05-28T13:04:15.998Z,29.85
2019-05-28T13:06:48.722Z,30.03
2019-05-28T13:09:21.333Z,30.33
2019-05-28T13:11:55.134Z,30.25
2019-05-28T13:14:27.303Z,30.19
2019-05-28T13:16:59.490Z,30.24
2019-05-28T13:19:31.747Z,29.91
2019-05-28T13:22:04.043Z,29.98
2019-05-28T13:24:36.281Z,30.11
2019-05-28T13:27:18.134Z,29.91
2019-05-28T13:29:42.726Z,30.07
2019-05-28T13:32:16.030Z,30.03
2019-05-28T13:34:48.214Z,30.17
2019-05-28T13:37:20.414Z,30.43
2019-05-28T13:39:52.754Z,30.41
2019-05-28T13:42:24.948Z,30.16
2019-05-28T13:44:56.999Z,30.28
2019-05-28T13:47:33.715Z,30.32
2019-05-28T13:50:05.190Z,29.92
2019-05-28T13:52:37.319Z,30.41
2019-05-28T13:55:10.843Z,30.38
2019-05-28T13:57:44.516Z,30.18
2019-05-28T14:00:18.768Z,30.61
2019-05-28T14:02:53.022Z,29.86
2019-05-28T14:05:25.136Z,30.08
2019-05-28T14:07:57.225Z,29.79
2019-05-28T14:10:29.611Z,29.74
2019-05-28T14:13:02.213Z,29.49
2019-05-28T14:15:36.120Z,29.65
2019-05-28T14:18:08.618Z,29.83
2019-05-28T14:20:41.177Z,30.10
2019-05-28T14:23:13.367Z,30.04
2019-05-28T14:25:45.793Z,30.03
2019-05-28T14:28:18.000Z,30.03
2019-05-28T14:31:00.062Z,30.20
2019-05-28T14:33:24.089Z,30.40
2019-05-28T14:35:56.293Z,30.40
2019-05-28T14:38:30.183Z,30.69
2019-05-28T14:41:04.272Z,30.65
2019-05-28T14:43:36.624Z,30.79
2019-05-28T14:46:08.752Z,30.89
2019-05-28T14:48:41.038Z,30.84
2019-05-28T14:51:13.234Z,30.76
2019-05-28T14:53:45.424Z,30.79
2019-05-28T14:56:17.511Z,30.64
2019-05-28T14:58:49.672Z,30.61
2019-05-28T15:01:21.794Z,30.89
2019-05-28T15:03:54.022Z,31.06
2019-05-28T15:06:26.166Z,30.75
2019-05-28T15:08:58.417Z,30.76
2019-05-28T15:11:30.447Z,30.65
2019-05-28T15:14:03.339Z,30.57
2019-05-28T15:16:36.187Z,30.51
2019-05-28T15:19:08.378Z,30.28
2019-05-28T15:21:40.958Z,30.29
2019-05-28T15:24:13.167Z,29.90
2019-05-28T15:26:45.314Z,29.97
2019-05-28T15:29:18.576Z,29.83
2019-05-28T15:31:52.799Z,29.84
2019-05-28T15:34:24.947Z,29.95
2019-05-28T15:36:57.068Z,30.09
2019-05-28T15:39:40.011Z,30.02
2019-05-28T15:42:04.974Z,30.03
2019-05-28T15:44:37.072Z,29.99
2019-05-28T15:47:09.579Z,29.94
2019-05-28T15:49:41.627Z,30.08
2019-05-28T15:52:13.851Z,30.25
2019-05-28T15:54:46.084Z,30.07
2019-05-28T15:57:18.214Z,30.04
2019-05-28T15:59:50.378Z,29.77
2019-05-28T16:02:25.371Z,29.38
2019-05-28T16:04:59.179Z,29.33
2019-05-28T16:07:31.442Z,29.47
2019-05-28T16:10:03.650Z,29.60
2019-05-28T16:12:35.767Z,29.75
2019-05-28T16:15:07.972Z,29.52
2019-05-28T16:17:40.029Z,29.54
2019-05-28T16:20:12.627Z,29.49
2019-05-28T16:22:44.814Z,29.52
2019-05-28T16:25:17.504Z,29.41
2019-05-28T16:27:49.661Z,29.58
2019-05-28T16:30:23.249Z,29.50
2019-05-28T16:32:55.496Z,29.25
2019-05-28T16:35:27.768Z,29.35
2019-05-28T16:37:59.832Z,29.33
2019-05-28T16:40:33.357Z,29.28
2019-05-28T16:43:05.635Z,29.23
2019-05-28T16:45:37.804Z,28.96
2019-05-28T16:48:09.978Z,28.95
2019-05-28T16:50:42.160Z,28.71
2019-05-28T16:53:14.324Z,28.67
2019-05-28T16:55:46.524Z,28.83
2019-05-28T16:58:18.665Z,28.91
2019-05-28T17:00:50.993Z,28.90
2019-05-28T17:03:23.073Z,28.87
2019-05-28T17:05:55.299Z,28.91
2019-05-28T17:08:30.761Z,28.73
2019-05-28T17:11:04.629Z,28.62
2019-05-28T17:13:36.752Z,28.58
2019-05-28T17:16:08.974Z,28.61
2019-05-28T17:18:41.103Z,28.53
2019-05-28T17:21:15.609Z,28.62
2019-05-28T17:23:47.774Z,28.59
2019-05-28T17:26:20.044Z,28.54
2019-05-28T17:28:54.251Z,28.42
2019-05-28T17:31:26.356Z,28.20
2019-05-28T17:34:00.158Z,28.29
2019-05-28T17:36:32.301Z,28.14
2019-05-28T17:39:05.873Z,28.04
2019-05-28T17:41:38.003Z,28.12
2019-05-28T17:44:10.029Z,28.12
2019-05-28T17:46:42.709Z,27.93
2019-05-28T17:49:14.778Z,27.83
2019-05-28T17:51:50.897Z,27.88
2019-05-28T17:54:24.745Z,27.82
2019-05-28T17:56:56.852Z,27.65
2019-05-28T17:59:28.939Z,27.65
2019-05-28T18:02:01.012Z,27.56
2019-05-28T18:04:33.071Z,27.45
2019-05-28T18:07:05.874Z,27.35
2019-05-28T18:09:38.056Z,27.31
2019-05-28T18:12:10.115Z,27.25
2019-05-28T18:14:42.191Z,27.28
2019-05-28T18:17:14.389Z,27.12
2019-05-28T18:19:46.600Z,27.09
2019-05-28T18:22:20.445Z,26.90
2019-05-28T18:24:52.561Z,26.80
2019-05-28T18:27:26.313Z,26.74
2019-05-28T18:29:58.405Z,26.68
2019-05-28T18:32:30.564Z,26.65
2019-05-28T18:35:04.226Z,26.59
2019-05-28T18:37:36.344Z,26.49
2019-05-28T18:40:09.307Z,26.31
2019-05-28T18:42:41.573Z,26.39
2019-05-28T18:45:14.149Z,26.29
2019-05-28T18:47:46.233Z,26.13
2019-05-28T18:50:19.487Z,25.95
2019-05-28T18:52:51.592Z,25.95
2019-05-28T18:55:24.047Z,25.84
2019-05-28T18:57:56.192Z,25.80
2019-05-28T19:00:28.826Z,25.73
2019-05-28T19:03:00.947Z,25.57
2019-05-28T19:05:34.193Z,25.56
2019-05-28T19:08:06.446Z,25.45
2019-05-28T19:10:38.498Z,25.29
2019-05-28T19:13:10.567Z,25.19
2019-05-28T19:15:42.635Z,25.09
2019-05-28T19:18:14.706Z,24.95
2019-05-28T19:20:46.853Z,24.85
2019-05-28T19:23:19.005Z,24.75
2019-05-28T19:25:51.184Z,24.65
2019-05-28T19:28:23.279Z,24.51
2019-05-28T19:30:55.461Z,24.40
2019-05-28T19:33:28.303Z,24.34
2019-05-28T19:36:01.560Z,24.23
2019-05-28T19:38:44.988Z,24.10
2019-05-28T19:41:08.390Z,24.01
2019-05-28T19:43:40.695Z,23.92
2019-05-28T19:46:12.867Z,23.84
2019-05-28T19:48:45.125Z,23.72
2019-05-28T19:51:17.401Z,23.58
2019-05-28T19:53:49.671Z,23.50
2019-05-28T19:56:21.735Z,23.41
2019-05-28T19:58:53.994Z,23.24
2019-05-28T20:01:26.507Z,23.19
2019-05-28T20:04:00.223Z,23.13
2019-05-28T20:06:33.774Z,23.06
2019-05-28T20:09:08.826Z,22.98
2019-05-28T20:11:41.050Z,22.87
2019-05-28T20:14:13.308Z,22.82
2019-05-28T20:16:45.410Z,22.72
2019-05-28T20:19:20.536Z,22.72
2019-05-28T20:21:55.262Z,22.68
2019-05-28T20:24:26.522Z,22.67
2019-05-28T20:26:58.707Z,22.64
2019-05-28T20:29:33.508Z,22.60
2019-05-28T20:32:07.287Z,22.56
2019-05-28T20:34:39.499Z,22.50
2019-05-28T20:37:12.695Z,22.41
2019-05-28T20:39:44.862Z,22.36
2019-05-28T20:42:27.006Z,22.29
2019-05-28T20:44:50.810Z,22.18
2019-05-28T20:47:22.896Z,22.17
2019-05-28T20:49:55.260Z,22.14
2019-05-28T20:52:27.308Z,22.14
2019-05-28T20:54:59.889Z,22.12
2019-05-28T20:57:32.976Z,22.04
2019-05-28T21:00:07.247Z,21.96
2019-05-28T21:02:39.671Z,21.90
2019-05-28T21:05:12.091Z,21.76
2019-05-28T21:07:47.868Z,21.65
2019-05-28T21:10:20.950Z,21.56
2019-05-28T21:12:53.020Z,21.58
2019-05-28T21:15:25.426Z,21.53
2019-05-28T21:17:59.358Z,21.46
2019-05-28T21:20:34.625Z,21.36
2019-05-28T21:23:08.062Z,21.25
2019-05-28T21:25:40.304Z,21.23
2019-05-28T21:28:15.562Z,21.16
2019-05-28T21:30:47.972Z,21.15
2019-05-28T21:33:20.119Z,21.12
2019-05-28T21:35:53.032Z,21.07
2019-05-28T21:38:26.717Z,20.97
2019-05-28T21:40:59.868Z,20.96
2019-05-28T21:43:35.847Z,20.92
2019-05-28T21:46:08.387Z,20.86
2019-05-28T21:48:40.509Z,20.80
2019-05-28T21:51:15.254Z,20.73
2019-05-28T21:53:47.383Z,20.54
2019-05-28T21:56:21.188Z,20.37
2019-05-28T21:58:53.508Z,20.29
2019-05-28T22:01:30.709Z,20.25
2019-05-28T22:04:04.585Z,20.25
2019-05-28T22:06:36.669Z,20.19
2019-05-28T22:09:09.244Z,20.17
2019-05-28T22:11:41.261Z,20.15
2019-05-28T22:14:13.511Z,20.08
2019-05-28T22:16:46.117Z,20.01
2019-05-28T22:19:18.315Z,19.95
2019-05-28T22:21:50.361Z,19.95
2019-05-28T22:24:22.888Z,19.96
2019-05-28T22:26:56.349Z,19.93
2019-05-28T22:29:33.777Z,19.95
2019-05-28T22:32:07.547Z,19.97
2019-05-28T22:34:39.631Z,19.99
2019-05-28T22:37:11.857Z,19.89
2019-05-28T22:39:46.355Z,19.77
2019-05-28T22:42:18.551Z,19.66
2019-05-28T22:44:54.808Z,19.65
2019-05-28T22:47:28.607Z,19.64
2019-05-28T22:50:16.936Z,19.69
2019-05-28T22:52:35.209Z,19.69
2019-05-28T22:55:09.361Z,19.71
2019-05-28T22:57:43.618Z,19.67
2019-05-28T23:00:21.348Z,19.59
2019-05-28T23:02:53.348Z,19.48
2019-05-28T23:05:27.303Z,19.31
2019-05-28T23:07:59.395Z,19.19
2019-05-28T23:10:31.514Z,19.01
2019-05-28T23:13:04.964Z,18.96
2019-05-28T23:15:37.154Z,18.91
2019-05-28T23:18:10.607Z,18.88
2019-05-28T23:20:43.045Z,18.85
2019-05-28T23:23:16.531Z,18.86
2019-05-28T23:25:48.753Z,18.89
2019-05-28T23:28:20.959Z,18.89
2019-05-28T23:30:53.360Z,18.78
2019-05-28T23:33:25.530Z,18.60
2019-05-28T23:35:57.682Z,18.54
2019-05-28T23:38:29.867Z,18.47
2019-05-28T23:41:03.062Z,18.41
2019-05-28T23:43:35.205Z,18.24
2019-05-28T23:46:07.880Z,18.21
2019-05-28T23:48:40.175Z,18.13
2019-05-28T23:51:12.642Z,18.12
2019-05-28T23:53:44.846Z,18.10
2019-05-28T23:56:17.999Z,17.98
2019-05-28T23:58:50.737Z,17.93
